createdAt,value
2019-05-30T00:01:31.667Z,85.10
2019-05-30T00:04:03.294Z,85.30
2019-05-30T00:06:32.653Z,84.90
2019-05-30T00:09:03.241Z,84.20
2019-05-30T00:11:32.994Z,84.70
2019-05-30T00:14:02.846Z,85.70
2019-05-30T00:16:33.682Z,86.00
2019-05-30T00:19:03.456Z,86.20
2019-05-30T00:21:33.141Z,86.60
2019-05-30T00:24:04.079Z,86.10
2019-05-30T00:26:34.942Z,86.10
2019-05-30T00:29:04.631Z,85.90
2019-05-30T00:31:36.106Z,85.70
2019-05-30T00:34:07.026Z,85.00
2019-05-30T00:36:36.827Z,85.60
2019-05-30T00:39:07.523Z,86.50
2019-05-30T00:41:37.196Z,86.60
2019-05-30T00:44:06.903Z,87.00
2019-05-30T00:46:36.618Z,87.60
2019-05-30T00:49:06.630Z,88.10
2019-05-30T00:51:36.446Z,88.70
2019-05-30T00:54:07.005Z,88.30
2019-05-30T00:56:36.993Z,88.30
2019-05-30T00:59:06.976Z,88.70
2019-05-30T01:01:36.925Z,88.60
2019-05-30T01:04:07.084Z,88.20
2019-05-30T01:06:37.062Z,89.10
2019-05-30T01:09:07.499Z,89.40
2019-05-30T01:11:37.302Z,89.20
2019-05-30T01:14:07.482Z,89.20
2019-05-30T01:16:37.643Z,88.70
2019-05-30T01:19:07.448Z,88.70
2019-05-30T01:21:37.272Z,89.20
2019-05-30T01:24:08.009Z,89.60
2019-05-30T01:26:37.712Z,89.60
2019-05-30T01:29:08.447Z,89.90
2019-05-30T01:31:38.160Z,89.80
2019-05-30T01:34:07.985Z,90.00
2019-05-30T01:36:37.888Z,89.70
2019-05-30T01:39:08.156Z,89.40
2019-05-30T01:41:39.047Z,89.10
2019-05-30T01:44:09.720Z,88.80
2019-05-30T01:46:39.386Z,88.40
2019-05-30T01:49:10.106Z,87.90
2019-05-30T01:51:39.802Z,88.00
2019-05-30T01:54:09.540Z,87.90
2019-05-30T01:56:39.249Z,87.40
2019-05-30T01:59:09.018Z,86.70
2019-05-30T02:01:38.978Z,86.70
2019-05-30T02:04:09.635Z,87.00
2019-05-30T02:06:39.428Z,88.10
2019-05-30T02:09:11.069Z,89.20
2019-05-30T02:11:43.171Z,88.80
2019-05-30T02:14:12.854Z,88.50
2019-05-30T02:16:42.568Z,88.10
2019-05-30T02:19:12.246Z,88.20
2019-05-30T02:21:43.726Z,88.00
2019-05-30T02:24:13.331Z,88.50
2019-05-30T02:26:43.042Z,88.80
2019-05-30T02:29:12.767Z,90.00
2019-05-30T02:31:42.437Z,90.50
2019-05-30T02:34:12.419Z,90.40
2019-05-30T02:36:43.323Z,90.30
2019-05-30T02:39:14.752Z,90.00
2019-05-30T02:41:44.452Z,90.00
2019-05-30T02:44:14.165Z,90.30
2019-05-30T02:46:44.898Z,90.20
2019-05-30T02:49:14.637Z,89.60
2019-05-30T02:51:44.342Z,88.60
2019-05-30T02:54:14.024Z,88.30
2019-05-30T02:56:43.767Z,89.30
2019-05-30T02:59:13.916Z,89.70
2019-05-30T03:02:00.045Z,88.20
2019-05-30T03:04:15.146Z,88.40
2019-05-30T03:06:44.861Z,87.10
2019-05-30T03:09:14.598Z,86.70
2019-05-30T03:11:44.386Z,86.40
2019-05-30T03:14:19.007Z,87.20
2019-05-30T03:16:45.334Z,89.20
2019-05-30T03:19:15.044Z,90.10
2019-05-30T03:21:46.037Z,90.20
2019-05-30T03:24:15.776Z,90.30
2019-05-30T03:26:45.407Z,89.30
2019-05-30T03:29:15.122Z,88.20
2019-05-30T03:31:45.834Z,88.20
2019-05-30T03:34:25.547Z,87.30
2019-05-30T03:36:48.025Z,87.50
2019-05-30T03:39:17.924Z,87.90
2019-05-30T03:41:47.976Z,88.50
2019-05-30T03:44:17.661Z,88.70
2019-05-30T03:46:56.168Z,89.20
2019-05-30T03:49:27.195Z,90.00
2019-05-30T03:51:59.682Z,90.50
2019-05-30T03:54:29.314Z,90.00
2019-05-30T03:57:09.018Z,88.60
2019-05-30T03:59:47.858Z,88.10
2019-05-30T04:02:56.067Z,87.50
2019-05-30T04:05:16.043Z,87.40
2019-05-30T04:07:49.067Z,87.70
2019-05-30T04:10:19.882Z,88.20
2019-05-30T04:12:58.828Z,88.40
2019-05-30T04:15:35.157Z,88.20
2019-05-30T04:18:04.906Z,87.90
2019-05-30T04:20:34.621Z,88.20
2019-05-30T04:23:04.295Z,89.30
2019-05-30T04:25:33.932Z,89.70
2019-05-30T04:28:04.669Z,89.90
2019-05-30T04:30:34.378Z,89.80
2019-05-30T04:33:17.351Z,90.00
2019-05-30T04:35:35.333Z,90.10
2019-05-30T04:38:05.017Z,89.50
2019-05-30T04:40:34.754Z,89.50
2019-05-30T04:43:05.513Z,88.40
2019-05-30T04:45:35.198Z,88.20
2019-05-30T04:48:04.920Z,88.00
2019-05-30T04:50:34.617Z,87.60
2019-05-30T04:53:04.299Z,87.10
2019-05-30T04:55:34.038Z,87.50
2019-05-30T04:58:03.749Z,88.10
2019-05-30T05:00:33.459Z,87.90
2019-05-30T05:03:04.932Z,88.30
2019-05-30T05:05:34.620Z,87.70
2019-05-30T05:08:04.331Z,87.70
2019-05-30T05:10:34.040Z,86.30
2019-05-30T05:13:03.754Z,86.80
2019-05-30T05:15:34.422Z,84.70
2019-05-30T05:18:04.067Z,84.70
2019-05-30T05:20:36.205Z,84.20
2019-05-30T05:23:05.021Z,84.60
2019-05-30T05:25:34.756Z,80.90
2019-05-30T05:28:04.466Z,80.70
2019-05-30T05:30:34.178Z,80.90
2019-05-30T05:33:03.887Z,81.40
2019-05-30T05:35:33.600Z,82.00
2019-05-30T05:38:03.283Z,82.30
2019-05-30T05:40:32.991Z,81.80
2019-05-30T05:43:02.728Z,81.80
2019-05-30T05:45:34.194Z,82.40
2019-05-30T05:48:03.887Z,83.40
2019-05-30T05:50:33.598Z,83.50
2019-05-30T05:53:04.279Z,82.20
2019-05-30T05:55:35.040Z,81.10
2019-05-30T05:58:04.781Z,81.40
2019-05-30T06:00:34.496Z,81.50
2019-05-30T06:03:05.120Z,81.40
2019-05-30T06:05:34.829Z,80.80
2019-05-30T06:08:04.539Z,80.60
2019-05-30T06:10:34.249Z,81.70
2019-05-30T06:13:03.958Z,81.30
2019-05-30T06:15:33.666Z,79.10
2019-05-30T06:18:03.379Z,76.80
2019-05-30T06:20:33.065Z,76.00
2019-05-30T06:23:02.799Z,73.90
2019-05-30T06:25:33.029Z,73.60
2019-05-30T06:28:02.951Z,72.50
2019-05-30T06:30:32.626Z,71.70
2019-05-30T06:33:02.367Z,73.10
2019-05-30T06:35:32.088Z,69.10
2019-05-30T06:38:01.777Z,69.40
2019-05-30T06:40:32.270Z,69.20
2019-05-30T06:43:02.092Z,70.00
2019-05-30T06:45:32.750Z,68.50
2019-05-30T06:48:02.461Z,69.30
2019-05-30T06:50:32.171Z,69.00
2019-05-30T06:53:01.861Z,69.80
2019-05-30T06:55:31.527Z,70.30
2019-05-30T06:58:01.303Z,72.40
2019-05-30T07:00:32.857Z,65.50
2019-05-30T07:03:02.393Z,65.80
2019-05-30T07:05:34.187Z,62.60
2019-05-30T07:08:03.522Z,63.60
2019-05-30T07:10:33.228Z,62.90
2019-05-30T07:13:02.942Z,62.00
2019-05-30T07:15:34.402Z,62.50
2019-05-30T07:18:03.896Z,60.60
2019-05-30T07:20:35.294Z,59.60
2019-05-30T07:23:04.955Z,61.90
2019-05-30T07:25:34.667Z,61.70
2019-05-30T07:28:04.376Z,62.60
2019-05-30T07:30:34.269Z,65.80
2019-05-30T07:33:04.001Z,65.60
2019-05-30T07:35:34.138Z,64.80
2019-05-30T07:38:03.910Z,62.40
2019-05-30T07:40:35.336Z,61.00
2019-05-30T07:43:04.962Z,61.60
2019-05-30T07:45:35.197Z,62.10
2019-05-30T07:48:05.209Z,63.20
2019-05-30T07:50:34.912Z,66.20
2019-05-30T07:53:04.552Z,66.20
2019-05-30T07:55:35.176Z,68.20
2019-05-30T07:58:06.866Z,63.40
2019-05-30T08:00:37.537Z,61.90
2019-05-30T08:03:08.406Z,63.40
2019-05-30T08:05:39.000Z,63.10
2019-05-30T08:08:08.645Z,61.90
2019-05-30T08:10:38.356Z,62.50
2019-05-30T08:13:09.042Z,63.40
2019-05-30T08:15:43.903Z,60.00
2019-05-30T08:18:11.287Z,58.50
2019-05-30T08:20:41.087Z,57.50
2019-05-30T08:23:11.652Z,58.80
2019-05-30T08:25:41.428Z,59.40
2019-05-30T08:28:12.868Z,61.70
2019-05-30T08:30:42.461Z,64.10
2019-05-30T08:33:12.199Z,62.20
2019-05-30T08:35:49.594Z,61.20
2019-05-30T08:38:13.156Z,60.50
2019-05-30T08:40:42.835Z,61.40
2019-05-30T08:43:12.472Z,62.10
2019-05-30T08:45:42.181Z,61.40
2019-05-30T08:48:11.892Z,64.10
2019-05-30T08:50:44.571Z,59.40
2019-05-30T08:53:32.701Z,59.10
2019-05-30T08:56:02.646Z,58.00
2019-05-30T08:58:32.504Z,61.40
2019-05-30T09:01:02.356Z,59.90
2019-05-30T09:03:32.067Z,59.30
2019-05-30T09:06:04.143Z,58.10
2019-05-30T09:08:33.102Z,58.70
2019-05-30T09:11:02.809Z,57.40
2019-05-30T09:13:32.547Z,54.10
2019-05-30T09:16:02.256Z,54.10
2019-05-30T09:18:31.970Z,53.10
2019-05-30T09:21:01.573Z,51.90
2019-05-30T09:23:31.284Z,51.10
2019-05-30T09:26:00.997Z,51.80
2019-05-30T09:28:30.779Z,57.30
2019-05-30T09:31:00.516Z,52.00
2019-05-30T09:33:31.197Z,53.90
2019-05-30T09:36:12.880Z,54.60
2019-05-30T09:38:32.208Z,53.30
2019-05-30T09:41:03.635Z,51.20
2019-05-30T09:43:33.267Z,53.00
2019-05-30T09:46:02.975Z,55.20
2019-05-30T09:48:32.685Z,58.10
2019-05-30T09:51:02.371Z,55.60
2019-05-30T09:53:32.105Z,52.70
2019-05-30T09:56:01.816Z,53.10
2019-05-30T09:58:31.525Z,53.10
2019-05-30T10:01:01.520Z,54.20
2019-05-30T10:03:32.276Z,51.50
2019-05-30T10:06:03.763Z,53.70
2019-05-30T10:08:34.533Z,52.70
2019-05-30T10:11:04.274Z,50.00
2019-05-30T10:13:33.984Z,53.40
2019-05-30T10:16:03.696Z,49.10
2019-05-30T10:18:33.405Z,46.60
2019-05-30T10:21:03.115Z,47.80
2019-05-30T10:23:32.824Z,48.30
2019-05-30T10:26:04.317Z,49.00
2019-05-30T10:28:33.986Z,51.50
2019-05-30T10:31:03.696Z,51.50
2019-05-30T10:33:33.616Z,53.60
2019-05-30T10:36:03.528Z,55.90
2019-05-30T10:38:33.238Z,55.00
2019-05-30T10:41:02.945Z,56.40
2019-05-30T10:43:34.345Z,52.20
2019-05-30T10:46:04.005Z,53.10
2019-05-30T10:48:33.688Z,53.50
2019-05-30T10:51:03.429Z,51.80
2019-05-30T10:53:36.915Z,51.20
2019-05-30T10:56:04.381Z,53.60
2019-05-30T10:58:34.091Z,56.40
2019-05-30T11:01:03.771Z,53.00
2019-05-30T11:03:33.482Z,51.40
2019-05-30T11:06:09.183Z,54.50
2019-05-30T11:08:39.996Z,55.50
2019-05-30T11:11:09.604Z,47.60
2019-05-30T11:13:39.315Z,45.60
2019-05-30T11:16:09.025Z,43.20
2019-05-30T11:18:38.735Z,45.00
2019-05-30T11:21:08.446Z,46.70
2019-05-30T11:23:38.157Z,45.40
2019-05-30T11:26:07.869Z,49.90
2019-05-30T11:28:37.546Z,51.70
2019-05-30T11:31:07.260Z,53.90
2019-05-30T11:33:36.995Z,50.20
2019-05-30T11:36:06.706Z,49.50
2019-05-30T11:38:36.417Z,54.90
2019-05-30T11:41:06.126Z,54.50
2019-05-30T11:43:35.835Z,50.70
2019-05-30T11:46:05.519Z,46.20
2019-05-30T11:48:35.234Z,46.50
2019-05-30T11:51:05.998Z,47.50
2019-05-30T11:53:35.700Z,48.40
2019-05-30T11:56:05.416Z,45.40
2019-05-30T11:58:35.091Z,48.00
2019-05-30T12:01:06.757Z,45.60
2019-05-30T12:03:37.126Z,41.30
2019-05-30T12:06:06.811Z,42.80
2019-05-30T12:08:36.525Z,44.00
2019-05-30T12:11:06.231Z,43.80
2019-05-30T12:13:35.942Z,43.20
2019-05-30T12:16:05.650Z,44.30
2019-05-30T12:18:35.361Z,42.30
2019-05-30T12:21:05.071Z,41.80
2019-05-30T12:23:34.793Z,41.60
2019-05-30T12:26:04.492Z,42.40
2019-05-30T12:28:34.202Z,37.10
2019-05-30T12:31:06.446Z,39.80
2019-05-30T12:33:35.158Z,41.50
2019-05-30T12:36:04.879Z,42.80
2019-05-30T12:38:35.472Z,44.50
2019-05-30T12:41:05.210Z,41.00
2019-05-30T12:43:34.891Z,41.00
2019-05-30T12:46:05.599Z,42.70
2019-05-30T12:48:35.208Z,45.20
2019-05-30T12:51:05.554Z,47.00
2019-05-30T12:53:35.272Z,43.30
2019-05-30T12:56:05.212Z,46.10
2019-05-30T12:58:34.920Z,42.80
2019-05-30T13:01:04.604Z,42.50
2019-05-30T13:03:35.241Z,40.20
2019-05-30T13:06:07.441Z,42.10
2019-05-30T13:08:37.346Z,44.70
2019-05-30T13:11:07.055Z,43.20
2019-05-30T13:13:36.766Z,47.00
2019-05-30T13:16:08.910Z,47.60
2019-05-30T13:18:37.710Z,44.60
2019-05-30T13:21:07.406Z,43.60
2019-05-30T13:23:39.009Z,43.40
2019-05-30T13:26:08.388Z,48.40
2019-05-30T13:28:38.919Z,49.20
2019-05-30T13:31:08.628Z,48.10
2019-05-30T13:33:38.767Z,53.10
2019-05-30T13:36:08.561Z,47.60
2019-05-30T13:38:38.269Z,46.20
2019-05-30T13:41:07.980Z,46.50
2019-05-30T13:43:37.832Z,43.70
2019-05-30T13:46:08.396Z,42.00
2019-05-30T13:48:38.341Z,42.00
2019-05-30T13:51:09.021Z,43.90
2019-05-30T13:53:38.859Z,45.20
2019-05-30T13:56:09.692Z,41.80
2019-05-30T13:58:39.613Z,40.20
2019-05-30T14:01:13.294Z,39.20
2019-05-30T14:03:40.695Z,43.20
2019-05-30T14:06:11.318Z,42.50
2019-05-30T14:08:42.138Z,42.80
2019-05-30T14:11:12.078Z,44.20
2019-05-30T14:13:41.687Z,46.90
2019-05-30T14:16:11.372Z,50.60
2019-05-30T14:18:41.108Z,50.50
2019-05-30T14:21:11.571Z,49.90
2019-05-30T14:23:41.347Z,47.70
2019-05-30T14:26:12.017Z,50.20
2019-05-30T14:28:43.428Z,47.00
2019-05-30T14:31:13.642Z,35.40
2019-05-30T14:33:43.463Z,31.20
2019-05-30T14:36:14.724Z,30.90
2019-05-30T14:38:57.047Z,28.20
2019-05-30T14:41:15.769Z,25.30
2019-05-30T14:43:45.479Z,23.90
2019-05-30T14:46:15.159Z,24.70
2019-05-30T14:48:44.897Z,26.20
2019-05-30T14:51:14.608Z,33.50
2019-05-30T14:53:44.319Z,33.50
2019-05-30T14:56:14.000Z,36.10
2019-05-30T14:58:43.742Z,39.90
2019-05-30T15:01:13.500Z,38.40
2019-05-30T15:03:43.261Z,43.20
2019-05-30T15:06:15.869Z,38.10
2019-05-30T15:08:44.348Z,36.90
2019-05-30T15:11:14.139Z,34.20
2019-05-30T15:13:43.745Z,30.40
2019-05-30T15:16:14.477Z,28.50
2019-05-30T15:18:45.203Z,28.10
2019-05-30T15:21:14.917Z,35.40
2019-05-30T15:23:44.526Z,37.00
2019-05-30T15:26:14.294Z,34.10
2019-05-30T15:28:44.123Z,32.30
2019-05-30T15:31:14.499Z,31.90
2019-05-30T15:33:45.973Z,36.40
2019-05-30T15:36:16.816Z,40.30
2019-05-30T15:38:47.063Z,40.90
2019-05-30T15:41:17.365Z,41.50
2019-05-30T15:43:47.122Z,40.20
2019-05-30T15:46:18.045Z,42.10
2019-05-30T15:48:47.879Z,36.90
2019-05-30T15:51:18.692Z,35.80
2019-05-30T15:53:50.461Z,34.70
2019-05-30T15:56:21.077Z,35.10
2019-05-30T15:58:50.811Z,34.30
2019-05-30T16:01:20.428Z,37.40
2019-05-30T16:03:50.235Z,37.10
2019-05-30T16:06:20.798Z,38.40
2019-05-30T16:08:51.800Z,40.50
2019-05-30T16:11:21.485Z,38.50
2019-05-30T16:13:51.223Z,38.80
2019-05-30T16:16:33.778Z,40.00
2019-05-30T16:18:52.282Z,38.60
2019-05-30T16:21:22.450Z,35.30
2019-05-30T16:23:52.313Z,31.90
2019-05-30T16:26:22.038Z,29.20
2019-05-30T16:28:51.939Z,29.40
2019-05-30T16:31:22.403Z,29.90
2019-05-30T16:33:52.283Z,30.90
2019-05-30T16:36:22.517Z,30.40
2019-05-30T16:38:52.417Z,30.50
2019-05-30T16:41:22.614Z,32.20
2019-05-30T16:43:53.570Z,36.40
2019-05-30T16:46:24.311Z,35.80
2019-05-30T16:48:54.021Z,36.00
2019-05-30T16:51:23.731Z,41.70
2019-05-30T16:53:53.414Z,41.60
2019-05-30T16:56:23.572Z,39.50
2019-05-30T16:58:59.695Z,35.60
2019-05-30T17:01:29.412Z,36.50
2019-05-30T17:03:59.146Z,35.40
2019-05-30T17:06:28.853Z,36.60
2019-05-30T17:09:01.327Z,37.80
2019-05-30T17:11:31.424Z,36.80
2019-05-30T17:14:01.158Z,37.00
2019-05-30T17:16:30.868Z,38.10
2019-05-30T17:19:02.282Z,40.20
2019-05-30T17:21:31.904Z,41.30
2019-05-30T17:24:01.640Z,36.60
2019-05-30T17:26:31.352Z,40.90
2019-05-30T17:29:01.138Z,39.00
2019-05-30T17:31:30.870Z,42.50
2019-05-30T17:34:00.716Z,42.40
2019-05-30T17:36:30.597Z,42.70
2019-05-30T17:39:00.282Z,45.10
2019-05-30T17:41:30.017Z,46.70
2019-05-30T17:43:59.625Z,48.10
2019-05-30T17:46:30.031Z,46.90
2019-05-30T17:49:00.891Z,48.30
2019-05-30T17:51:31.727Z,51.30
2019-05-30T17:54:01.332Z,48.10
2019-05-30T17:56:31.042Z,48.40
2019-05-30T17:59:00.752Z,48.90
2019-05-30T18:01:30.557Z,50.80
2019-05-30T18:04:00.378Z,49.50
2019-05-30T18:06:30.802Z,48.90
2019-05-30T18:09:00.617Z,50.10
2019-05-30T18:11:31.841Z,51.80
2019-05-30T18:14:01.576Z,48.50
2019-05-30T18:16:31.500Z,49.40
2019-05-30T18:19:01.302Z,49.70
2019-05-30T18:21:32.012Z,51.80
2019-05-30T18:24:01.991Z,51.80
2019-05-30T18:26:32.041Z,51.20
2019-05-30T18:29:01.783Z,52.50
2019-05-30T18:31:32.332Z,56.10
2019-05-30T18:34:02.128Z,55.70
2019-05-30T18:36:32.679Z,55.50
2019-05-30T18:39:02.566Z,56.20
2019-05-30T18:41:32.879Z,58.70
2019-05-30T18:44:02.603Z,57.80
2019-05-30T18:46:33.343Z,58.40
2019-05-30T18:49:03.149Z,59.40
2019-05-30T18:51:32.865Z,58.60
2019-05-30T18:54:02.465Z,61.20
2019-05-30T18:56:32.811Z,60.30
2019-05-30T18:59:03.727Z,61.40
2019-05-30T19:01:33.806Z,64.10
2019-05-30T19:04:04.017Z,65.20
2019-05-30T19:06:33.870Z,64.70
2019-05-30T19:09:03.797Z,64.10
2019-05-30T19:11:36.350Z,65.80
2019-05-30T19:14:05.162Z,65.60
2019-05-30T19:16:34.874Z,65.60
2019-05-30T19:19:04.580Z,66.40
2019-05-30T19:21:34.301Z,66.30
2019-05-30T19:24:04.003Z,64.60
2019-05-30T19:26:34.708Z,64.60
2019-05-30T19:29:04.419Z,65.10
2019-05-30T19:31:34.764Z,66.20
2019-05-30T19:34:04.686Z,66.90
2019-05-30T19:36:35.405Z,67.70
2019-05-30T19:39:06.411Z,66.70
2019-05-30T19:41:52.642Z,68.10
2019-05-30T19:44:07.287Z,66.70
2019-05-30T19:46:38.735Z,66.20
2019-05-30T19:49:08.477Z,67.40
2019-05-30T19:51:39.319Z,66.40
2019-05-30T19:54:15.270Z,68.70
2019-05-30T19:56:44.983Z,66.60
2019-05-30T19:59:16.386Z,66.20
2019-05-30T20:01:46.038Z,67.10
2019-05-30T20:04:15.750Z,67.40
2019-05-30T20:06:45.459Z,68.60
2019-05-30T20:09:15.152Z,68.30
2019-05-30T20:11:59.896Z,67.30
2019-05-30T20:14:16.199Z,68.30
2019-05-30T20:16:45.939Z,68.30
2019-05-30T20:19:15.647Z,67.30
2019-05-30T20:21:45.358Z,66.40
2019-05-30T20:24:15.070Z,67.70
2019-05-30T20:26:44.782Z,69.40
2019-05-30T20:29:14.489Z,68.70
2019-05-30T20:31:45.677Z,69.60
2019-05-30T20:34:15.549Z,69.80
2019-05-30T20:36:45.263Z,70.10
2019-05-30T20:39:14.865Z,70.60
2019-05-30T20:41:44.547Z,69.30
2019-05-30T20:44:16.203Z,70.10
2019-05-30T20:46:45.842Z,70.70
2019-05-30T20:49:15.519Z,71.40
2019-05-30T20:51:47.532Z,71.60
2019-05-30T20:54:16.504Z,71.40
2019-05-30T20:56:49.709Z,71.70
2019-05-30T20:59:17.461Z,70.00
2019-05-30T21:01:47.171Z,69.00
2019-05-30T21:04:16.881Z,67.00
2019-05-30T21:06:47.166Z,67.50
2019-05-30T21:09:28.619Z,67.10
2019-05-30T21:11:48.879Z,66.50
2019-05-30T21:14:18.589Z,66.80
2019-05-30T21:16:49.402Z,66.40
2019-05-30T21:19:19.109Z,67.50
2019-05-30T21:21:49.809Z,68.00
2019-05-30T21:24:19.552Z,65.90
2019-05-30T21:26:49.391Z,66.00
2019-05-30T21:29:19.103Z,65.90
2019-05-30T21:31:48.796Z,66.70
2019-05-30T21:34:18.524Z,64.90
2019-05-30T21:36:48.276Z,64.80
2019-05-30T21:39:17.942Z,65.30
2019-05-30T21:41:48.542Z,64.30
2019-05-30T21:44:19.343Z,65.50
2019-05-30T21:46:49.102Z,67.40
2019-05-30T21:49:19.957Z,67.60
2019-05-30T21:51:49.740Z,66.00
2019-05-30T21:54:19.582Z,65.70
2019-05-30T21:56:50.313Z,66.40
2019-05-30T21:59:21.965Z,66.70
2019-05-30T22:01:57.177Z,67.50
2019-05-30T22:04:23.136Z,68.00
2019-05-30T22:06:52.758Z,68.40
2019-05-30T22:09:22.452Z,68.10
2019-05-30T22:11:52.187Z,68.30
2019-05-30T22:14:21.874Z,67.80
2019-05-30T22:16:52.162Z,67.40
2019-05-30T22:19:23.134Z,67.70
2019-05-30T22:21:52.849Z,67.40
2019-05-30T22:24:24.294Z,68.50
2019-05-30T22:26:53.903Z,68.70
2019-05-30T22:29:23.612Z,68.40
2019-05-30T22:31:55.063Z,68.10
2019-05-30T22:34:25.752Z,67.80
2019-05-30T22:36:55.514Z,68.20
2019-05-30T22:39:27.144Z,67.90
2019-05-30T22:41:56.582Z,67.70
2019-05-30T22:44:26.277Z,67.20
2019-05-30T22:46:56.923Z,66.60
2019-05-30T22:49:26.825Z,66.30
2019-05-30T22:51:57.331Z,66.10
2019-05-30T22:54:27.063Z,66.30
2019-05-30T22:56:56.773Z,66.20
2019-05-30T22:59:28.208Z,66.40
2019-05-30T23:01:57.832Z,66.70
2019-05-30T23:04:27.540Z,66.10
2019-05-30T23:06:57.224Z,65.80
2019-05-30T23:09:26.941Z,66.60
2019-05-30T23:11:56.643Z,67.20
2019-05-30T23:14:26.391Z,66.60
2019-05-30T23:16:56.476Z,66.50
2019-05-30T23:19:28.199Z,67.20
2019-05-30T23:21:57.561Z,66.50
2019-05-30T23:24:27.273Z,66.80
2019-05-30T23:26:57.944Z,66.50
2019-05-30T23:29:27.816Z,66.60
2019-05-30T23:31:58.317Z,65.70
2019-05-30T23:34:28.168Z,66.30
2019-05-30T23:36:58.845Z,65.50
2019-05-30T23:39:28.502Z,65.40
2019-05-30T23:41:59.339Z,65.10
2019-05-30T23:44:29.152Z,66.20
2019-05-30T23:46:59.755Z,65.90
2019-05-30T23:49:29.595Z,66.40
2019-05-30T23:52:00.318Z,66.30
2019-05-30T23:54:30.346Z,66.10
2019-05-30T23:57:00.800Z,66.00
2019-05-30T23:59:31.711Z,65.80
